Time;durP1;ratioP1;P1;durP2;ratioP2;P2;SDS_P1;SDS_P2;PMS_P1;PMS_P2;Temp;Humidity;BMP_temperature;BMP_pressure;BME280_temperature;BME280_humidity;BME280_pressure;Samples;Min_cycle;Max_cycle;Signal;HPM_P1;HPM_P2
2021/01/02 00:02:13;;;;;;;31.97;20.83;;;4.20;99.90;;;;;;5032576;28;20426;-73
2021/01/02 00:05:09;;;;;;;30.60;19.33;;;4.20;99.90;;;;;;5031638;28;20522;-73
2021/01/02 00:08:09;;;;;;;30.83;19.07;;;4.10;99.90;;;;;;5027247;28;20434;-73
2021/01/02 00:10:49;;;;;;;29.40;19.07;;;4.10;99.90;;;;;;5032355;28;20517;-74
2021/01/02 00:13:39;;;;;;;34.23;21.23;;;4.00;99.90;;;;;;5031404;28;20483;-74
2021/01/02 00:16:23;;;;;;;30.57;18.43;;;4.10;99.90;;;;;;5028598;28;20422;-74
2021/01/02 00:18:51;;;;;;;33.87;20.60;;;4.00;99.90;;;;;;5040637;28;20429;-74
2021/01/02 00:21:25;;;;;;;27.57;18.20;;;3.90;99.90;;;;;;5032572;28;20433;-74
2021/01/02 00:24:09;;;;;;;28.50;18.30;;;4.00;99.90;;;;;;5029932;28;20442;-74
2021/01/02 00:26:46;;;;;;;33.03;19.57;;;4.00;99.90;;;;;;5032741;28;20853;-74
2021/01/02 00:29:20;;;;;;;33.93;22.00;;;4.00;99.90;;;;;;5032437;28;20425;-74
2021/01/02 00:31:55;;;;;;;25.73;18.70;;;4.00;99.90;;;;;;5032188;28;20454;-73
2021/01/02 00:35:00;;;;;;;25.40;18.00;;;4.00;99.90;;;;;;5032489;28;20485;-74
2021/01/02 00:37:30;;;;;;;27.97;18.77;;;4.00;99.90;;;;;;5032417;28;20418;-74
2021/01/02 00:40:03;;;;;;;31.70;20.10;;;4.10;99.90;;;;;;5030050;28;20422;-74
2021/01/02 00:42:29;;;;;;;24.40;17.33;;;4.00;99.90;;;;;;5029873;28;20451;-74
2021/01/02 00:44:58;;;;;;;28.10;19.53;;;4.00;99.90;;;;;;5031979;28;20441;-73
2021/01/02 00:47:31;;;;;;;28.47;18.50;;;3.80;99.90;;;;;;5031134;28;20450;-73
2021/01/02 00:49:57;;;;;;;30.87;18.70;;;3.90;99.90;;;;;;5031028;28;20437;-73
2021/01/02 00:52:42;;;;;;;31.40;19.50;;;3.90;99.90;;;;;;5029775;28;20469;-74
2021/01/02 00:55:25;;;;;;;30.07;17.70;;;4.00;99.90;;;;;;5031137;28;20429;-73
2021/01/02 00:58:04;;;;;;;31.00;19.67;;;4.00;99.90;;;;;;5033406;28;20433;-73
2021/01/02 01:00:35;;;;;;;27.77;18.17;;;3.90;99.90;;;;;;5029421;28;20469;-74
2021/01/02 01:03:19;;;;;;;23.80;17.93;;;4.00;99.90;;;;;;5031412;28;20462;-74
2021/01/02 01:05:48;;;;;;;27.57;18.70;;;4.00;99.90;;;;;;5023816;28;20462;-74
2021/01/02 01:08:17;;;;;;;26.63;18.60;;;4.00;99.90;;;;;;5031484;28;20441;-74
2021/01/02 01:10:44;;;;;;;27.20;19.10;;;4.00;99.90;;;;;;5032797;28;20988;-74
2021/01/02 01:13:23;;;;;;;27.80;17.83;;;4.00;99.90;;;;;;5030538;28;20450;-73
2021/01/02 01:15:50;;;;;;;33.27;19.70;;;4.10;99.90;;;;;;5026257;28;20428;-73
2021/01/02 01:18:30;;;;;;;26.37;17.43;;;4.10;99.90;;;;;;5027234;28;20492;-74
2021/01/02 01:21:00;;;;;;;26.93;19.20;;;4.20;99.90;;;;;;5017452;28;20422;-74
2021/01/02 01:23:37;;;;;;;25.50;18.03;;;4.20;99.90;;;;;;5030917;28;20504;-74
2021/01/02 01:26:27;;;;;;;23.63;17.40;;;4.10;99.90;;;;;;5024580;28;20464;-73
2021/01/02 01:28:58;;;;;;;32.37;20.33;;;4.10;99.90;;;;;;5027972;28;20437;-73
2021/01/02 01:31:28;;;;;;;30.23;18.93;;;4.20;99.90;;;;;;5029612;28;20811;-73
2021/01/02 01:33:58;;;;;;;27.23;17.67;;;4.00;99.90;;;;;;5015353;28;20456;-72
2021/01/02 01:36:33;;;;;;;30.33;21.50;;;4.10;99.90;;;;;;5025565;28;20455;-73
2021/01/02 01:39:01;;;;;;;29.53;18.20;;;4.00;99.90;;;;;;5030149;28;20418;-74
2021/01/02 01:41:38;;;;;;;29.73;18.30;;;4.00;99.90;;;;;;5034075;28;20484;-73
2021/01/02 01:44:13;;;;;;;31.73;18.53;;;4.00;99.90;;;;;;5031637;28;20761;-73
2021/01/02 01:46:53;;;;;;;28.43;18.17;;;3.80;99.90;;;;;;5031012;28;20520;-73
2021/01/02 01:49:59;;;;;;;31.00;20.10;;;3.80;99.90;;;;;;5030348;28;20445;-73
2021/01/02 01:52:52;;;;;;;26.90;18.10;;;3.90;99.90;;;;;;5022035;28;20465;-73
2021/01/02 01:55:43;;;;;;;28.37;18.63;;;3.90;99.90;;;;;;5030818;28;20464;-73
2021/01/02 01:58:16;;;;;;;30.47;18.20;;;3.80;99.90;;;;;;5030208;28;20453;-72
2021/01/02 02:00:52;;;;;;;28.10;16.63;;;3.80;99.90;;;;;;5029626;28;20812;-73
2021/01/02 02:03:24;;;;;;;24.80;16.63;;;3.70;99.90;;;;;;5031475;28;20476;-74
2021/01/02 02:06:00;;;;;;;28.50;18.17;;;3.70;99.90;;;;;;5016319;28;20789;-72
2021/01/02 02:08:44;;;;;;;28.63;18.03;;;3.70;99.90;;;;;;5032042;28;20440;-74
2021/01/02 02:11:42;;;;;;;24.77;17.17;;;3.70;99.90;;;;;;5032510;28;20461;-73
2021/01/02 02:14:36;;;;;;;25.83;18.17;;;3.70;99.90;;;;;;5034078;28;20774;-73
2021/01/02 02:17:05;;;;;;;25.13;17.30;;;3.70;99.90;;;;;;5035121;28;20994;-73
2021/01/02 02:19:44;;;;;;;28.67;17.53;;;3.70;99.90;;;;;;5033046;28;20911;-74
2021/01/02 02:22:16;;;;;;;29.77;18.83;;;3.70;99.90;;;;;;5032392;28;22463;-73
2021/01/02 02:24:43;;;;;;;29.27;19.90;;;3.60;99.90;;;;;;5030857;28;20434;-73
2021/01/02 02:27:13;;;;;;;33.70;20.27;;;3.50;99.90;;;;;;5034543;28;20927;-72
2021/01/02 02:29:50;;;;;;;31.00;18.10;;;3.60;99.90;;;;;;5032490;28;20441;-73
2021/01/02 02:32:17;;;;;;;28.80;19.50;;;3.60;99.90;;;;;;5032815;28;20465;-73
2021/01/02 02:34:45;;;;;;;29.33;19.50;;;3.60;99.90;;;;;;5033101;28;20448;-74
2021/01/02 02:37:11;;;;;;;27.43;16.97;;;3.70;99.90;;;;;;5034090;28;20501;-74
2021/01/02 02:39:36;;;;;;;24.13;17.53;;;3.60;99.90;;;;;;5027579;28;20838;-74
2021/01/02 02:42:03;;;;;;;27.37;20.00;;;3.70;99.90;;;;;;5045509;28;20204;-74
2021/01/02 02:44:33;;;;;;;27.80;18.03;;;3.70;99.90;;;;;;5034132;28;20171;-73
2021/01/02 02:47:00;;;;;;;25.80;17.90;;;3.70;99.90;;;;;;5033845;28;20434;-73
2021/01/02 02:49:31;;;;;;;30.93;17.67;;;3.70;99.90;;;;;;5033592;28;20438;-73
2021/01/02 02:52:18;;;;;;;25.80;17.53;;;3.70;99.90;;;;;;5034447;28;20552;-73
2021/01/02 02:54:44;;;;;;;25.70;17.40;;;3.70;99.90;;;;;;5032682;28;20431;-73
2021/01/02 02:57:12;;;;;;;23.30;17.27;;;3.70;99.90;;;;;;5034263;28;20913;-74
2021/01/02 02:59:37;;;;;;;30.77;19.63;;;3.80;99.90;;;;;;5034663;28;20270;-74
2021/01/02 03:02:06;;;;;;;27.43;16.60;;;3.80;99.90;;;;;;5034241;28;20973;-74
2021/01/02 03:04:35;;;;;;;27.17;18.43;;;3.80;99.90;;;;;;5030881;28;20184;-73
2021/01/02 03:07:04;;;;;;;30.43;19.07;;;3.80;99.90;;;;;;5033283;28;20480;-73
2021/01/02 03:09:31;;;;;;;29.70;19.37;;;3.80;99.90;;;;;;5029440;28;20869;-72
2021/01/02 03:11:57;;;;;;;29.10;19.50;;;3.90;99.90;;;;;;5032916;28;20472;-74
2021/01/02 03:14:23;;;;;;;24.77;17.13;;;3.90;99.90;;;;;;5033459;28;20434;-73
2021/01/02 03:16:49;;;;;;;30.47;19.67;;;3.90;99.90;;;;;;5032973;28;20168;-73
2021/01/02 03:19:14;;;;;;;27.63;17.73;;;3.90;99.90;;;;;;5030072;28;20834;-74
2021/01/02 03:21:40;;;;;;;26.07;19.47;;;3.80;99.90;;;;;;5027452;28;20465;-74
2021/01/02 03:24:07;;;;;;;22.13;15.87;;;3.80;99.90;;;;;;5032090;28;20175;-73
2021/01/02 03:26:33;;;;;;;26.27;19.00;;;3.90;99.90;;;;;;5031941;28;20632;-73
2021/01/02 03:28:59;;;;;;;24.30;16.70;;;3.90;99.90;;;;;;5032628;28;20437;-73
2021/01/02 03:31:24;;;;;;;25.30;16.47;;;3.90;99.90;;;;;;5032800;28;20511;-73
2021/01/02 03:33:50;;;;;;;22.93;16.37;;;3.90;99.90;;;;;;5031748;28;20278;-73
2021/01/02 03:36:16;;;;;;;26.83;17.30;;;3.90;99.90;;;;;;5032492;28;20641;-74
2021/01/02 03:38:53;;;;;;;27.80;17.30;;;3.90;99.90;;;;;;5031873;28;20434;-73
2021/01/02 03:41:18;;;;;;;27.70;17.07;;;4.00;99.90;;;;;;5032055;28;20175;-73
2021/01/02 03:43:44;;;;;;;28.03;18.20;;;4.00;99.90;;;;;;5033461;28;20438;-73
2021/01/02 03:46:10;;;;;;;26.23;17.10;;;4.00;99.90;;;;;;5032881;28;20280;-73
2021/01/02 03:48:35;;;;;;;27.30;19.10;;;4.00;99.90;;;;;;5031465;28;20260;-73
2021/01/02 03:51:01;;;;;;;28.47;17.07;;;4.00;99.90;;;;;;5032056;28;20280;-73
2021/01/02 03:53:26;;;;;;;26.70;17.23;;;4.00;99.90;;;;;;5032658;28;20657;-73
2021/01/02 03:55:52;;;;;;;26.63;17.73;;;4.00;99.90;;;;;;5030940;28;20591;-74
2021/01/02 03:58:18;;;;;;;25.83;18.50;;;4.10;99.90;;;;;;5032622;28;20272;-73
2021/01/02 04:00:44;;;;;;;27.10;18.50;;;4.10;99.90;;;;;;5032436;28;20183;-74
2021/01/02 04:03:09;;;;;;;33.50;18.93;;;4.10;99.90;;;;;;5032841;28;20205;-73
2021/01/02 04:05:35;;;;;;;32.70;19.97;;;4.10;99.90;;;;;;5032551;28;20837;-73
2021/01/02 04:08:02;;;;;;;27.10;18.13;;;4.10;99.90;;;;;;5032488;28;20202;-74
2021/01/02 04:10:27;;;;;;;25.97;16.97;;;4.20;99.90;;;;;;5031842;28;20601;-73
2021/01/02 04:12:53;;;;;;;26.70;17.50;;;4.20;99.90;;;;;;5033056;28;20494;-73
2021/01/02 04:15:18;;;;;;;22.37;17.60;;;4.20;99.90;;;;;;5030845;28;20180;-74
2021/01/02 04:17:44;;;;;;;25.90;17.63;;;4.20;99.90;;;;;;5031608;28;20636;-73
2021/01/02 04:20:11;;;;;;;28.43;18.60;;;4.30;99.90;;;;;;5031748;28;20183;-72
2021/01/02 04:22:37;;;;;;;30.80;18.03;;;4.30;99.90;;;;;;5025875;28;20202;-74
2021/01/02 04:25:04;;;;;;;26.37;17.30;;;4.30;99.90;;;;;;5030640;28;20422;-74
2021/01/02 04:27:29;;;;;;;28.10;18.70;;;4.20;99.90;;;;;;5030897;28;20179;-74
2021/01/02 04:29:55;;;;;;;32.53;19.13;;;4.20;99.90;;;;;;5031671;28;20450;-74
2021/01/02 04:32:21;;;;;;;27.33;18.40;;;4.10;99.90;;;;;;5033762;28;20257;-74
2021/01/02 04:34:47;;;;;;;27.70;18.53;;;4.00;99.90;;;;;;5031497;28;20172;-73
2021/01/02 04:37:13;;;;;;;28.23;19.70;;;4.00;99.90;;;;;;5032200;28;20537;-74
2021/01/02 04:39:39;;;;;;;25.93;18.07;;;4.00;99.90;;;;;;5029647;28;20533;-74
2021/01/02 04:42:04;;;;;;;30.87;18.10;;;3.90;99.90;;;;;;5032193;28;20478;-74
2021/01/02 04:44:31;;;;;;;26.30;16.40;;;3.90;99.90;;;;;;5031702;28;20178;-74
2021/01/02 04:46:59;;;;;;;27.10;18.20;;;3.80;99.90;;;;;;5028251;28;20195;-74
2021/01/02 04:49:25;;;;;;;28.13;18.27;;;3.90;99.90;;;;;;5029946;28;20456;-73
2021/01/02 04:51:58;;;;;;;26.73;16.27;;;3.80;99.90;;;;;;5031260;28;20454;-73
2021/01/02 04:54:24;;;;;;;27.07;17.60;;;3.80;99.90;;;;;;5031275;28;20176;-73
2021/01/02 04:56:50;;;;;;;27.77;18.27;;;3.80;99.90;;;;;;5031361;28;20458;-74
2021/01/02 04:59:18;;;;;;;26.80;16.03;;;3.80;99.90;;;;;;5030912;28;20466;-74
2021/01/02 05:01:49;;;;;;;26.23;16.63;;;3.80;99.90;;;;;;5031134;28;20545;-74
2021/01/02 05:04:15;;;;;;;31.00;17.30;;;3.80;99.90;;;;;;5031549;28;20511;-74
2021/01/02 05:06:41;;;;;;;30.03;18.40;;;3.80;99.90;;;;;;5031335;28;20430;-74
2021/01/02 05:09:07;;;;;;;25.20;17.10;;;3.80;99.90;;;;;;5031106;28;20181;-74
2021/01/02 05:11:37;;;;;;;25.87;17.10;;;3.70;99.90;;;;;;5031202;28;20203;-74
2021/01/02 05:14:04;;;;;;;23.10;17.10;;;3.70;99.90;;;;;;5032100;28;20419;-74
2021/01/02 05:16:41;;;;;;;24.70;17.47;;;3.70;99.90;;;;;;5031719;28;20429;-74
2021/01/02 05:19:09;;;;;;;23.43;15.83;;;3.70;99.90;;;;;;5030767;28;20437;-74
2021/01/02 05:21:37;;;;;;;21.57;15.27;;;3.60;99.90;;;;;;5029469;28;20448;-74
2021/01/02 05:24:08;;;;;;;25.10;17.87;;;3.60;99.90;;;;;;5029827;28;20947;-75
2021/01/02 05:26:41;;;;;;;24.93;16.67;;;3.50;99.90;;;;;;5029736;28;20437;-74
2021/01/02 05:29:36;;;;;;;27.80;18.00;;;3.50;99.90;;;;;;5031282;28;20442;-74
2021/01/02 05:32:03;;;;;;;26.57;18.33;;;3.30;99.90;;;;;;5032729;28;20465;-73
2021/01/02 05:34:31;;;;;;;25.93;18.50;;;3.40;99.90;;;;;;5031253;28;20445;-73
2021/01/02 05:37:05;;;;;;;29.03;18.83;;;3.40;99.90;;;;;;5030542;28;20516;-74
2021/01/02 05:39:37;;;;;;;27.50;18.83;;;3.50;99.90;;;;;;5029699;28;20453;-74
2021/01/02 05:42:03;;;;;;;28.93;17.27;;;3.50;99.90;;;;;;5030668;28;20446;-74
2021/01/02 05:44:36;;;;;;;25.83;17.67;;;3.50;99.90;;;;;;5034548;28;20449;-74
2021/01/02 05:47:02;;;;;;;25.00;16.90;;;3.50;99.90;;;;;;5033254;28;20483;-74
2021/01/02 05:49:47;;;;;;;21.83;14.97;;;3.60;99.90;;;;;;5028895;28;20480;-74
2021/01/02 05:52:13;;;;;;;28.07;17.30;;;3.60;99.90;;;;;;5034995;28;20466;-73
2021/01/02 05:54:50;;;;;;;27.27;17.90;;;3.60;99.90;;;;;;5034495;28;20434;-74
2021/01/02 05:57:26;;;;;;;29.23;17.80;;;3.60;99.90;;;;;;5033408;28;20433;-74
2021/01/02 05:59:54;;;;;;;27.10;17.90;;;3.60;99.90;;;;;;5034705;28;20517;-74
2021/01/02 06:02:32;;;;;;;20.63;16.43;;;3.60;99.90;;;;;;5034714;28;20531;-75
2021/01/02 06:05:00;;;;;;;24.37;16.50;;;3.70;99.90;;;;;;5034823;28;20515;-74
2021/01/02 06:07:28;;;;;;;24.30;15.57;;;3.70;99.90;;;;;;5034771;28;20433;-74
2021/01/02 06:09:55;;;;;;;29.87;17.97;;;3.80;99.90;;;;;;5034080;28;20499;-73
2021/01/02 06:12:33;;;;;;;26.70;16.60;;;3.80;99.90;;;;;;5033095;28;20466;-74
2021/01/02 06:15:02;;;;;;;21.17;14.70;;;3.90;99.90;;;;;;5028463;28;20487;-74
2021/01/02 06:17:30;;;;;;;21.37;15.27;;;4.00;99.90;;;;;;5033871;28;20440;-74
2021/01/02 06:19:58;;;;;;;23.83;16.60;;;4.10;99.90;;;;;;5033693;28;20869;-74
2021/01/02 06:22:24;;;;;;;26.17;16.93;;;4.10;99.90;;;;;;5033786;28;20927;-75
2021/01/02 06:24:50;;;;;;;25.77;17.63;;;4.10;99.90;;;;;;5036131;28;20977;-74
2021/01/02 06:27:17;;;;;;;24.77;16.07;;;4.10;99.90;;;;;;5035063;28;20509;-75
2021/01/02 06:29:57;;;;;;;30.50;18.57;;;4.20;99.90;;;;;;5034772;28;20430;-74
2021/01/02 06:32:25;;;;;;;24.23;15.90;;;4.30;99.90;;;;;;5034246;28;20468;-73
2021/01/02 06:35:08;;;;;;;25.53;17.40;;;4.40;99.90;;;;;;5034707;28;20422;-74
2021/01/02 06:37:50;;;;;;;21.30;15.53;;;4.40;99.90;;;;;;5028870;28;20453;-74
2021/01/02 06:40:26;;;;;;;22.30;17.37;;;4.40;99.90;;;;;;5033503;28;20938;-74
2021/01/02 06:42:55;;;;;;;26.23;15.70;;;4.50;99.90;;;;;;5033200;28;20854;-74
2021/01/02 06:45:39;;;;;;;23.50;16.03;;;4.50;99.90;;;;;;5034363;28;20907;-74
2021/01/02 06:48:17;;;;;;;24.53;16.40;;;4.50;99.90;;;;;;5033870;28;20953;-74
2021/01/02 06:51:22;;;;;;;24.83;15.50;;;4.30;99.90;;;;;;5034004;28;21071;-75
2021/01/02 06:53:47;;;;;;;17.77;12.90;;;4.30;99.90;;;;;;5032563;28;20499;-74
2021/01/02 06:56:16;;;;;;;17.10;13.10;;;4.40;99.90;;;;;;5029016;28;20500;-74
2021/01/02 06:58:44;;;;;;;23.27;15.17;;;4.30;99.90;;;;;;5033019;28;20168;-74
2021/01/02 07:01:29;;;;;;;26.07;16.90;;;4.30;99.90;;;;;;5034182;28;20953;-74
2021/01/02 07:03:56;;;;;;;25.90;14.97;;;4.20;99.90;;;;;;5034190;28;20458;-75
2021/01/02 07:06:24;;;;;;;21.03;14.40;;;4.30;99.90;;;;;;5034557;28;20509;-74
2021/01/02 07:08:53;;;;;;;19.80;13.43;;;4.30;99.90;;;;;;5034192;28;20512;-74
2021/01/02 07:11:30;;;;;;;19.40;13.00;;;4.30;99.90;;;;;;5026344;28;20533;-74
2021/01/02 07:14:17;;;;;;;19.07;12.57;;;4.10;99.90;;;;;;5026071;28;20442;-74
2021/01/02 07:16:52;;;;;;;20.30;13.83;;;4.10;99.90;;;;;;5034146;28;20495;-74
2021/01/02 07:19:24;;;;;;;22.57;13.93;;;4.10;99.90;;;;;;5034043;28;20424;-74
2021/01/02 07:22:10;;;;;;;21.27;13.37;;;4.00;99.90;;;;;;5033481;28;20415;-73
2021/01/02 07:24:45;;;;;;;21.30;13.87;;;4.00;99.90;;;;;;5033841;28;20429;-74
2021/01/02 07:27:18;;;;;;;22.83;14.00;;;4.10;99.90;;;;;;5032772;28;20432;-74
2021/01/02 07:29:52;;;;;;;22.03;12.90;;;4.00;99.90;;;;;;5026936;28;20422;-74
2021/01/02 07:32:19;;;;;;;18.10;13.23;;;4.10;99.90;;;;;;5031924;28;20492;-73
2021/01/02 07:34:49;;;;;;;20.80;14.77;;;4.10;99.90;;;;;;5024649;28;20765;-74
2021/01/02 07:37:17;;;;;;;23.23;14.47;;;4.20;99.90;;;;;;5032305;28;20911;-74
2021/01/02 07:40:01;;;;;;;21.20;13.87;;;4.30;99.90;;;;;;5033645;28;20441;-74
2021/01/02 07:42:30;;;;;;;19.90;14.47;;;4.30;99.90;;;;;;5032994;28;20442;-74
2021/01/02 07:45:04;;;;;;;20.07;15.77;;;4.30;99.90;;;;;;5030839;28;20509;-75
2021/01/02 07:47:30;;;;;;;24.43;14.70;;;4.10;99.90;;;;;;5030238;28;20516;-74
2021/01/02 07:50:16;;;;;;;19.10;14.00;;;4.10;99.90;;;;;;5032384;28;20426;-74
2021/01/02 07:52:54;;;;;;;22.07;15.00;;;4.30;99.90;;;;;;5027141;28;20884;-73
2021/01/02 07:55:33;;;;;;;26.63;14.40;;;4.30;99.90;;;;;;5033391;28;20414;-75
2021/01/02 07:58:00;;;;;;;28.77;14.70;;;4.30;99.90;;;;;;5031357;28;20442;-73
2021/01/02 08:00:26;;;;;;;20.00;13.90;;;4.40;99.90;;;;;;5032937;28;20421;-74
2021/01/02 08:02:52;;;;;;;19.80;13.50;;;4.40;99.90;;;;;;5027464;28;20441;-74
2021/01/02 08:05:22;;;;;;;22.00;13.57;;;4.40;99.90;;;;;;5032411;28;20179;-74
2021/01/02 08:07:56;;;;;;;23.43;14.27;;;4.40;99.90;;;;;;5033010;28;20919;-74
2021/01/02 08:10:21;;;;;;;16.47;12.20;;;4.40;99.90;;;;;;5032526;28;20427;-74
2021/01/02 08:12:49;;;;;;;19.30;14.67;;;4.50;99.90;;;;;;5032847;28;20511;-74
2021/01/02 08:15:18;;;;;;;23.60;14.77;;;4.50;99.90;;;;;;5033010;28;20168;-73
2021/01/02 08:17:44;;;;;;;20.87;13.00;;;4.60;99.90;;;;;;5032400;28;20434;-73
2021/01/02 08:20:10;;;;;;;23.73;13.17;;;4.60;99.90;;;;;;5031591;28;20564;-73
2021/01/02 08:22:37;;;;;;;20.23;13.77;;;4.70;99.90;;;;;;5030316;28;20469;-74
2021/01/02 08:25:09;;;;;;;20.30;13.83;;;4.70;99.90;;;;;;5030467;28;20934;-74
2021/01/02 08:27:35;;;;;;;21.83;13.87;;;4.70;99.90;;;;;;5027529;28;20438;-74
2021/01/02 08:30:05;;;;;;;19.87;13.60;;;4.70;99.90;;;;;;5026385;28;20798;-74
2021/01/02 08:32:34;;;;;;;17.60;13.10;;;4.60;99.90;;;;;;5030558;28;20468;-74
2021/01/02 08:35:00;;;;;;;19.37;13.23;;;4.60;99.90;;;;;;5031813;28;20426;-73
2021/01/02 08:37:25;;;;;;;21.73;13.10;;;4.60;99.90;;;;;;5031636;28;20422;-73
2021/01/02 08:40:09;;;;;;;17.90;13.10;;;4.70;99.90;;;;;;5031726;28;20203;-73
2021/01/02 08:42:39;;;;;;;17.13;13.20;;;4.70;99.90;;;;;;5029159;28;20462;-74
2021/01/02 08:45:09;;;;;;;21.17;14.60;;;4.80;99.90;;;;;;5030876;28;20418;-74
2021/01/02 08:47:39;;;;;;;19.77;14.30;;;4.80;99.90;;;;;;5031844;28;20452;-73
2021/01/02 08:50:08;;;;;;;21.77;13.67;;;4.70;99.90;;;;;;5031367;28;20503;-74
2021/01/02 08:52:35;;;;;;;23.57;13.80;;;4.60;99.90;;;;;;5030733;28;20491;-74
2021/01/02 08:55:15;;;;;;;22.00;15.73;;;4.70;99.90;;;;;;5031240;28;20430;-74
2021/01/02 08:57:49;;;;;;;24.10;14.60;;;4.70;99.90;;;;;;5031726;28;21609;-75
2021/01/02 09:00:17;;;;;;;22.07;13.17;;;4.70;99.90;;;;;;5023256;28;20444;-75
2021/01/02 09:02:48;;;;;;;20.47;14.13;;;4.70;99.90;;;;;;5027085;28;20446;-74
2021/01/02 09:05:17;;;;;;;21.80;13.90;;;4.60;99.90;;;;;;5031665;28;20531;-74
2021/01/02 09:07:59;;;;;;;20.83;13.93;;;4.60;99.90;;;;;;5030805;28;20433;-75
2021/01/02 09:10:30;;;;;;;21.30;14.07;;;4.60;99.90;;;;;;5032980;28;20812;-75
2021/01/02 09:13:03;;;;;;;20.27;13.23;;;4.40;99.90;;;;;;5030372;28;20470;-73
2021/01/02 09:15:44;;;;;;;22.97;13.80;;;4.60;99.90;;;;;;5031914;28;20426;-74
2021/01/02 09:18:11;;;;;;;21.67;13.90;;;4.70;99.90;;;;;;5019050;28;20441;-73
2021/01/02 09:20:37;;;;;;;20.03;13.33;;;4.80;99.90;;;;;;5030430;28;20438;-74
2021/01/02 09:23:03;;;;;;;20.17;15.23;;;4.90;99.90;;;;;;5029483;28;20438;-74
2021/01/02 09:25:30;;;;;;;21.40;14.90;;;5.00;99.90;;;;;;5028302;28;20186;-74
2021/01/02 09:27:56;;;;;;;18.97;13.20;;;5.10;99.90;;;;;;5030112;28;20184;-74
2021/01/02 09:30:23;;;;;;;17.40;13.80;;;5.00;99.90;;;;;;5031222;28;21240;-74
2021/01/02 09:32:48;;;;;;;39.73;22.40;;;5.00;99.90;;;;;;5031046;28;20498;-74
2021/01/02 09:35:14;;;;;;;24.23;15.03;;;4.80;99.90;;;;;;5030387;28;20481;-73
2021/01/02 09:37:42;;;;;;;20.13;13.50;;;5.00;99.90;;;;;;5029195;28;20446;-74
2021/01/02 09:40:15;;;;;;;21.30;14.20;;;5.00;99.90;;;;;;5031609;28;20533;-74
2021/01/02 09:42:41;;;;;;;20.03;14.87;;;5.20;99.90;;;;;;5031093;28;20457;-74
2021/01/02 09:45:08;;;;;;;24.90;14.83;;;5.30;99.90;;;;;;5029128;28;20434;-74
2021/01/02 09:47:33;;;;;;;25.80;16.60;;;5.30;99.90;;;;;;5031583;28;20445;-74
2021/01/02 09:49:59;;;;;;;21.07;14.27;;;5.60;99.90;;;;;;5029050;28;20939;-74
2021/01/02 09:52:24;;;;;;;20.00;14.20;;;5.60;99.90;;;;;;5029835;28;20297;-73
2021/01/02 09:54:50;;;;;;;39.63;14.40;;;5.70;99.90;;;;;;5030218;28;20228;-74
2021/01/02 09:57:16;;;;;;;20.23;13.53;;;5.90;99.90;;;;;;5031573;28;20180;-74
2021/01/02 09:59:44;;;;;;;17.30;12.10;;;6.10;99.90;;;;;;5030976;28;20180;-74
2021/01/02 10:02:10;;;;;;;21.43;14.57;;;6.30;99.90;;;;;;5030756;28;20734;-74
2021/01/02 10:04:46;;;;;;;18.20;14.57;;;6.40;99.90;;;;;;5027609;28;20445;-74
2021/01/02 10:07:14;;;;;;;18.17;13.73;;;6.60;99.90;;;;;;5029089;28;20270;-74
2021/01/02 10:09:42;;;;;;;18.17;14.90;;;6.90;99.90;;;;;;5030111;28;20807;-74
2021/01/02 10:12:08;;;;;;;18.13;12.83;;;7.20;99.90;;;;;;5030971;28;20465;-74
2021/01/02 10:14:34;;;;;;;20.23;14.40;;;7.20;99.90;;;;;;5029437;28;20546;-71
2021/01/02 10:17:00;;;;;;;16.40;11.80;;;7.40;99.90;;;;;;5030648;28;20414;-71
2021/01/02 10:19:26;;;;;;;17.30;10.73;;;7.80;99.90;;;;;;5030948;28;20908;-71
2021/01/02 10:21:51;;;;;;;21.87;12.27;;;8.30;99.90;;;;;;5030822;28;20187;-72
2021/01/02 10:24:17;;;;;;;13.77;10.60;;;9.10;99.90;;;;;;5029159;28;20644;-71
2021/01/02 10:26:43;;;;;;;19.87;11.70;;;10.20;99.90;;;;;;5030404;28;20190;-72
2021/01/02 10:29:08;;;;;;;14.90;12.00;;;11.40;99.90;;;;;;5032728;28;20175;-71
2021/01/02 10:31:34;;;;;;;13.33;11.53;;;11.90;99.90;;;;;;5034258;28;20207;-72
2021/01/02 10:34:00;;;;;;;13.43;11.30;;;12.00;99.90;;;;;;5034329;28;20202;-72
2021/01/02 10:36:25;;;;;;;16.20;12.30;;;11.60;99.90;;;;;;5034893;28;20270;-72
2021/01/02 10:38:51;;;;;;;16.83;12.30;;;11.30;99.90;;;;;;5034849;28;20184;-72
2021/01/02 10:41:17;;;;;;;15.83;11.77;;;10.90;99.90;;;;;;5034825;28;20201;-72
2021/01/02 10:43:42;;;;;;;13.40;11.10;;;10.40;99.90;;;;;;5034888;28;20203;-72
2021/01/02 10:46:09;;;;;;;21.43;12.83;;;10.30;99.90;;;;;;5034814;28;20179;-72
2021/01/02 10:48:36;;;;;;;16.10;12.20;;;10.20;99.90;;;;;;5034376;28;20440;-72
2021/01/02 10:51:01;;;;;;;14.30;10.80;;;9.70;99.90;;;;;;5033992;28;20480;-71
2021/01/02 10:53:27;;;;;;;14.70;11.47;;;9.70;99.90;;;;;;5034354;28;20461;-72
2021/01/02 10:55:53;;;;;;;14.40;11.30;;;9.50;99.90;;;;;;5035058;28;20175;-72
2021/01/02 10:58:18;;;;;;;12.80;10.40;;;9.00;99.90;;;;;;5034240;28;20217;-72
2021/01/02 11:00:44;;;;;;;17.40;11.80;;;9.00;99.90;;;;;;5033818;28;20537;-72
2021/01/02 11:03:09;;;;;;;14.70;11.73;;;9.00;99.90;;;;;;5033770;28;20202;-72
2021/01/02 11:05:35;;;;;;;17.50;12.00;;;9.00;99.90;;;;;;5034288;28;20576;-72
2021/01/02 11:08:00;;;;;;;16.57;12.50;;;8.90;99.90;;;;;;5034435;28;20175;-71
2021/01/02 11:10:26;;;;;;;15.27;10.90;;;8.80;99.90;;;;;;5033869;28;20543;-72
2021/01/02 11:12:52;;;;;;;15.93;11.13;;;8.90;99.90;;;;;;5033727;28;20212;-72
2021/01/02 11:15:18;;;;;;;14.87;11.70;;;8.80;99.90;;;;;;5034462;28;20231;-72
2021/01/02 11:17:43;;;;;;;30.17;12.27;;;8.80;99.90;;;;;;5034338;28;20168;-72
2021/01/02 11:20:10;;;;;;;17.10;11.17;;;8.80;99.90;;;;;;5034567;28;20430;-72
2021/01/02 11:22:36;;;;;;;14.50;10.77;;;8.80;99.90;;;;;;5034233;28;20196;-72
2021/01/02 11:25:03;;;;;;;17.97;11.40;;;8.70;99.90;;;;;;5033958;28;20521;-72
2021/01/02 11:27:29;;;;;;;18.97;12.43;;;8.30;99.90;;;;;;5034599;28;20425;-72
2021/01/02 11:29:54;;;;;;;17.13;12.03;;;8.30;99.90;;;;;;5033691;28;20422;-72
2021/01/02 11:32:20;;;;;;;18.23;14.10;;;8.30;99.90;;;;;;5033122;28;20203;-71
2021/01/02 11:34:46;;;;;;;14.53;11.80;;;7.90;99.90;;;;;;5033810;28;20171;-71
2021/01/02 11:37:13;;;;;;;15.80;11.87;;;7.80;99.90;;;;;;5033795;28;20167;-71
2021/01/02 11:39:39;;;;;;;16.80;12.43;;;8.00;99.90;;;;;;5033183;28;20505;-71
2021/01/02 11:42:07;;;;;;;17.23;11.97;;;8.20;99.90;;;;;;5032619;28;20426;-72
2021/01/02 11:44:33;;;;;;;17.43;11.40;;;8.70;99.90;;;;;;5033718;28;20452;-72
2021/01/02 11:47:00;;;;;;;15.57;10.57;;;9.10;99.90;;;;;;5033351;28;20430;-71
2021/01/02 11:49:31;;;;;;;11.70;9.60;;;9.20;99.90;;;;;;5033594;28;20410;-72
2021/01/02 11:51:59;;;;;;;10.73;8.80;;;10.40;99.90;;;;;;5033222;28;20457;-72
2021/01/02 11:54:26;;;;;;;23.73;10.43;;;11.90;99.90;;;;;;5033475;28;20406;-72
2021/01/02 11:56:53;;;;;;;12.17;9.63;;;12.60;99.90;;;;;;5033180;28;20425;-72
2021/01/02 11:59:19;;;;;;;11.00;9.10;;;13.90;99.90;;;;;;5033385;28;20801;-72
2021/01/02 12:01:49;;;;;;;11.80;8.67;;;15.00;99.90;;;;;;5032959;28;20459;-72
2021/01/02 12:04:18;;;;;;;8.93;8.10;;;15.20;99.90;;;;;;5033275;28;20880;-72
2021/01/02 12:06:44;;;;;;;9.53;7.77;;;15.90;96.50;;;;;;5033196;28;20480;-72
2021/01/02 12:09:10;;;;;;;9.97;8.40;;;16.70;92.30;;;;;;5033180;28;20876;-72
2021/01/02 12:11:39;;;;;;;10.50;8.30;;;17.80;91.50;;;;;;5032195;28;20545;-72
2021/01/02 12:14:06;;;;;;;8.47;7.23;;;18.00;83.70;;;;;;5031754;28;20986;-70
2021/01/02 12:16:36;;;;;;;10.00;7.63;;;17.40;80.50;;;;;;5032115;28;20472;-71
2021/01/02 12:19:05;;;;;;;10.80;8.13;;;16.80;80.50;;;;;;5030742;28;20453;-70
2021/01/02 12:21:31;;;;;;;9.50;7.93;;;16.20;81.70;;;;;;5030931;28;20457;-71
2021/01/02 12:23:56;;;;;;;9.07;7.83;;;15.50;83.80;;;;;;5032978;28;20464;-71
2021/01/02 12:26:23;;;;;;;11.50;9.77;;;14.80;85.90;;;;;;5033098;28;20191;-71
2021/01/02 12:28:50;;;;;;;12.00;9.63;;;14.00;87.80;;;;;;5031624;28;20675;-71
2021/01/02 12:31:27;;;;;;;9.83;7.50;;;13.60;91.40;;;;;;5032719;28;20440;-70
2021/01/02 12:33:54;;;;;;;11.60;9.63;;;13.10;94.70;;;;;;5032359;28;20430;-70
2021/01/02 12:36:31;;;;;;;13.57;9.50;;;12.00;96.90;;;;;;5032738;28;20406;-70
2021/01/02 12:38:56;;;;;;;16.70;10.57;;;11.40;99.90;;;;;;5032631;28;20399;-70
2021/01/02 12:41:22;;;;;;;13.23;10.63;;;11.00;99.90;;;;;;5032327;28;20499;-70
2021/01/02 12:43:48;;;;;;;14.40;8.37;;;10.50;99.90;;;;;;5032526;28;20244;-69
2021/01/02 12:46:16;;;;;;;15.20;9.50;;;10.10;99.90;;;;;;5032880;28;20193;-70
2021/01/02 12:48:44;;;;;;;50.97;37.73;;;9.60;99.90;;;;;;5032103;28;20436;-70
2021/01/02 12:51:09;;;;;;;13.50;9.37;;;9.40;99.90;;;;;;5031746;28;20410;-69
2021/01/02 12:53:37;;;;;;;17.43;10.87;;;8.80;99.90;;;;;;5032275;28;20433;-70